Mount Pleasant, Utah
Current Conditions -  °F | °C
As of 3:53 PM on Thursday 23 Oct 2014 (Local Time) from KPUC Reporting Station
Clear Clear  
Wind Chill: 67°   Ceiling: Unl
Heat Index: 67°   Visibility: 10mi
Dew Point: 33°   Wind: 7mph
Humidity: 28%   Direction: 190°S
Pressure: 30.2"   Gusts: NA
Location:  39.55°N, 111.46°W
Report Text: KPUC 232153Z AUTO 19006KT 10SM CLR 19/01 A3020 RMK AO2 SLP195 T01940006 TSNO
Loading
Personal Weather Stations






























Interactive Weather Map
Tropical Storm Tracking
New forecast layout! Learn more

10-Day Weather Forecast

Advertisements
Track Severe Weather on mobile